createdAt,value
2018-09-29T00:00:05.542Z,13.84
2018-09-29T00:02:34.338Z,13.72
2018-09-29T00:05:03.159Z,13.70
2018-09-29T00:07:32.051Z,13.72
2018-09-29T00:10:00.860Z,13.75
2018-09-29T00:12:29.693Z,13.84
2018-09-29T00:14:58.625Z,13.88
2018-09-29T00:17:27.410Z,13.89
2018-09-29T00:19:56.250Z,13.95
2018-09-29T00:22:25.053Z,13.92
2018-09-29T00:24:53.861Z,13.94
2018-09-29T00:27:22.682Z,13.84
2018-09-29T00:29:51.485Z,13.87
2018-09-29T00:32:20.278Z,13.78
2018-09-29T00:34:49.195Z,13.78
2018-09-29T00:37:18.018Z,13.63
2018-09-29T00:39:46.810Z,13.66
2018-09-29T00:42:15.597Z,13.68
2018-09-29T00:44:44.531Z,13.76
2018-09-29T00:47:13.350Z,13.80
2018-09-29T00:49:42.165Z,13.82
2018-09-29T00:52:11.134Z,13.78
2018-09-29T00:54:39.949Z,13.88
2018-09-29T00:57:08.870Z,13.77
2018-09-29T00:59:37.681Z,13.84
2018-09-29T01:02:06.554Z,13.88
2018-09-29T01:04:35.410Z,14.01
2018-09-29T01:07:04.213Z,14.09
2018-09-29T01:09:33.013Z,14.02
2018-09-29T01:12:01.841Z,14.06
2018-09-29T01:14:30.657Z,13.97
2018-09-29T01:16:59.513Z,13.90
2018-09-29T01:19:28.321Z,13.79
2018-09-29T01:21:57.110Z,13.86
2018-09-29T01:24:25.941Z,14.00
2018-09-29T01:26:54.737Z,13.91
2018-09-29T01:29:23.563Z,13.93
2018-09-29T01:31:52.518Z,13.93
2018-09-29T01:34:21.353Z,13.83
2018-09-29T01:36:50.196Z,13.85
2018-09-29T01:39:18.983Z,13.50
2018-09-29T01:41:47.761Z,13.35
2018-09-29T01:44:16.577Z,13.19
2018-09-29T01:46:45.357Z,13.12
2018-09-29T01:49:14.181Z,13.04
2018-09-29T01:51:42.962Z,12.95
2018-09-29T01:54:11.801Z,12.89
2018-09-29T01:56:40.599Z,12.88
2018-09-29T01:59:09.389Z,12.94
2018-09-29T02:01:39.614Z,12.98
2018-09-29T02:04:08.430Z,13.21
2018-09-29T02:06:37.270Z,13.47
2018-09-29T02:09:07.119Z,13.61
2018-09-29T02:11:35.927Z,13.75
2018-09-29T02:14:05.031Z,13.75
2018-09-29T02:16:34.069Z,13.57
2018-09-29T02:19:02.877Z,13.58
2018-09-29T02:21:31.673Z,13.73
2018-09-29T02:24:00.506Z,13.70
2018-09-29T02:26:29.294Z,13.70
2018-09-29T02:28:58.145Z,13.75
2018-09-29T02:31:26.946Z,13.78
2018-09-29T02:33:55.734Z,13.81
2018-09-29T02:36:24.553Z,13.85
2018-09-29T02:38:53.421Z,13.81
2018-09-29T02:41:22.229Z,13.59
2018-09-29T02:43:51.048Z,13.64
2018-09-29T02:46:19.928Z,13.70
2018-09-29T02:48:48.713Z,13.69
2018-09-29T02:51:17.654Z,13.62
2018-09-29T02:53:46.440Z,13.58
2018-09-29T02:56:15.966Z,13.54
2018-09-29T02:58:44.814Z,13.42
2018-09-29T03:01:13.667Z,13.46
2018-09-29T03:03:42.486Z,13.60
2018-09-29T03:06:11.378Z,13.56
2018-09-29T03:08:40.202Z,13.56
2018-09-29T03:11:09.011Z,13.67
2018-09-29T03:13:37.854Z,13.78
2018-09-29T03:16:06.706Z,13.65
2018-09-29T03:18:35.585Z,13.60
2018-09-29T03:21:04.645Z,13.62
2018-09-29T03:23:33.446Z,13.52
2018-09-29T03:26:02.317Z,13.54
2018-09-29T03:28:31.122Z,13.50
2018-09-29T03:30:59.922Z,13.47
2018-09-29T03:33:28.777Z,13.43
2018-09-29T03:35:57.884Z,13.39
2018-09-29T03:38:26.673Z,13.43
2018-09-29T03:40:55.514Z,13.29
2018-09-29T03:43:24.294Z,13.30
2018-09-29T03:45:53.083Z,13.30
2018-09-29T03:48:21.945Z,13.24
2018-09-29T03:50:50.730Z,13.31
2018-09-29T03:53:24.969Z,13.19
2018-09-29T03:55:53.788Z,13.25
2018-09-29T03:58:22.573Z,13.24
2018-09-29T04:00:51.446Z,13.18
2018-09-29T04:03:20.239Z,13.17
2018-09-29T04:05:49.049Z,13.21
2018-09-29T04:08:17.898Z,13.20
2018-09-29T04:10:46.700Z,13.28
2018-09-29T04:13:15.498Z,13.22
2018-09-29T04:15:44.390Z,13.29
2018-09-29T04:18:13.263Z,13.02
2018-09-29T04:20:42.055Z,12.83
2018-09-29T04:23:10.831Z,12.77
2018-09-29T04:25:39.674Z,12.64
2018-09-29T04:28:08.506Z,12.48
2018-09-29T04:30:37.304Z,12.49
2018-09-29T04:33:06.153Z,12.42
2018-09-29T04:35:36.314Z,12.42
2018-09-29T04:38:05.142Z,12.51
2018-09-29T04:40:33.937Z,12.72
2018-09-29T04:43:02.900Z,12.72
2018-09-29T04:45:31.728Z,12.68
2018-09-29T04:48:00.546Z,12.80
2018-09-29T04:50:29.418Z,12.84
2018-09-29T04:52:58.231Z,12.90
2018-09-29T04:55:27.069Z,13.06
2018-09-29T04:57:56.021Z,13.06
2018-09-29T05:00:24.835Z,13.11
2018-09-29T05:02:53.648Z,13.17
2018-09-29T05:05:22.487Z,13.10
2018-09-29T05:07:51.298Z,13.15
2018-09-29T05:10:20.098Z,13.32
2018-09-29T05:12:48.996Z,13.45
2018-09-29T05:15:17.950Z,13.55
2018-09-29T05:17:46.791Z,13.69
2018-09-29T05:20:15.606Z,13.69
2018-09-29T05:22:44.443Z,13.66
2018-09-29T05:25:13.253Z,13.65
2018-09-29T05:27:42.065Z,13.78
2018-09-29T05:30:11.885Z,14.16
2018-09-29T05:32:40.722Z,14.32
2018-09-29T05:35:09.562Z,14.51
2018-09-29T05:37:38.445Z,14.75
2018-09-29T05:40:07.253Z,14.58
2018-09-29T05:42:36.064Z,14.44
2018-09-29T05:45:05.035Z,14.43
2018-09-29T05:47:33.866Z,14.92
2018-09-29T05:50:02.694Z,15.20
2018-09-29T05:52:31.560Z,15.35
2018-09-29T05:55:00.381Z,15.15
2018-09-29T05:57:29.340Z,15.46
2018-09-29T05:59:58.213Z,15.49
2018-09-29T06:02:27.075Z,15.73
2018-09-29T06:04:55.917Z,15.86
2018-09-29T06:07:24.874Z,15.79
2018-09-29T06:09:53.682Z,15.86
2018-09-29T06:12:22.499Z,16.17
2018-09-29T06:14:51.448Z,16.15
2018-09-29T06:17:20.315Z,16.41
2018-09-29T06:19:49.130Z,16.46
2018-09-29T06:22:18.231Z,16.72
2018-09-29T06:24:47.102Z,16.89
2018-09-29T06:27:15.949Z,17.41
2018-09-29T06:29:44.784Z,17.53
2018-09-29T06:32:14.500Z,17.52
2018-09-29T06:34:47.860Z,17.29
2018-09-29T06:37:19.438Z,17.28
2018-09-29T06:39:48.318Z,17.85
2018-09-29T06:42:17.234Z,17.81
2018-09-29T06:44:46.162Z,18.16
2018-09-29T06:47:15.039Z,18.18
2018-09-29T06:49:43.898Z,18.28
2018-09-29T06:52:14.030Z,18.64
2018-09-29T06:54:42.876Z,18.54
2018-09-29T06:57:11.691Z,18.14
2018-09-29T06:59:41.988Z,17.85
2018-09-29T07:02:10.823Z,17.72
2018-09-29T07:04:39.840Z,18.11
2018-09-29T07:07:10.265Z,18.45
2018-09-29T07:09:39.181Z,18.55
2018-09-29T07:12:08.112Z,18.42
2018-09-29T07:14:37.034Z,18.59
2018-09-29T07:17:06.818Z,18.86
2018-09-29T07:19:36.429Z,18.74
2018-09-29T07:22:06.773Z,19.05
2018-09-29T07:24:35.685Z,19.23
2018-09-29T07:27:04.585Z,19.46
2018-09-29T07:29:33.570Z,19.66
2018-09-29T07:32:02.457Z,19.72
2018-09-29T07:34:31.379Z,19.45
2018-09-29T07:37:01.729Z,19.68
2018-09-29T07:39:30.624Z,20.02
2018-09-29T07:41:59.576Z,20.50
2018-09-29T07:44:29.745Z,20.79
2018-09-29T07:46:58.645Z,21.10
2018-09-29T07:49:27.528Z,21.33
2018-09-29T07:51:57.672Z,21.20
2018-09-29T07:54:26.556Z,21.01
2018-09-29T07:56:55.452Z,20.63
2018-09-29T07:59:24.672Z,20.67
2018-09-29T08:01:53.567Z,20.80
2018-09-29T08:04:22.509Z,21.05
2018-09-29T08:06:51.556Z,20.90
2018-09-29T08:09:20.446Z,20.90
2018-09-29T08:11:49.395Z,20.61
2018-09-29T08:14:18.285Z,20.82
2018-09-29T08:16:47.242Z,20.87
2018-09-29T08:19:16.198Z,20.71
2018-09-29T08:21:45.326Z,20.75
2018-09-29T08:24:15.567Z,20.59
2018-09-29T08:26:44.416Z,20.83
2018-09-29T08:29:13.227Z,20.61
2018-09-29T08:31:42.069Z,20.83
2018-09-29T08:34:10.915Z,20.81
2018-09-29T08:36:39.818Z,20.69
2018-09-29T08:39:10.978Z,20.68
2018-09-29T08:41:39.915Z,20.08
2018-09-29T08:44:08.739Z,20.41
2018-09-29T08:46:37.641Z,20.51
2018-09-29T08:49:06.476Z,20.47
2018-09-29T08:51:35.315Z,20.39
2018-09-29T08:54:05.559Z,20.29
2018-09-29T08:56:34.452Z,20.17
2018-09-29T08:59:03.643Z,20.17
2018-09-29T09:01:32.523Z,20.03
2018-09-29T09:04:01.635Z,19.71
2018-09-29T09:06:30.459Z,19.65
2018-09-29T09:08:59.314Z,19.78
2018-09-29T09:11:28.220Z,19.95
2018-09-29T09:13:57.227Z,19.85
2018-09-29T09:16:27.232Z,19.70
2018-09-29T09:18:56.099Z,20.02
2018-09-29T09:21:24.919Z,20.26
2018-09-29T09:23:53.770Z,20.25
2018-09-29T09:26:22.666Z,20.40
2018-09-29T09:28:51.762Z,20.28
2018-09-29T09:31:21.851Z,20.41
2018-09-29T09:33:50.849Z,20.50
2018-09-29T09:36:19.823Z,20.30
2018-09-29T09:38:48.660Z,20.45
2018-09-29T09:41:17.524Z,20.60
2018-09-29T09:43:46.331Z,20.55
2018-09-29T09:46:15.206Z,20.65
2018-09-29T09:48:44.043Z,20.70
2018-09-29T09:51:13.059Z,20.50
2018-09-29T09:53:41.989Z,20.39
2018-09-29T09:56:10.940Z,20.51
2018-09-29T09:58:39.861Z,20.76
2018-09-29T10:01:14.035Z,21.00
2018-09-29T10:03:42.930Z,20.84
2018-09-29T10:06:11.803Z,21.14
2018-09-29T10:08:40.610Z,21.21
2018-09-29T10:11:09.563Z,21.12
2018-09-29T10:13:38.420Z,21.35
2018-09-29T10:16:07.681Z,21.35
2018-09-29T10:18:36.564Z,21.19
2018-09-29T10:21:05.415Z,21.17
2018-09-29T10:23:34.395Z,20.97
2018-09-29T10:26:04.442Z,20.87
2018-09-29T10:28:33.253Z,20.36
2018-09-29T10:31:02.078Z,19.93
2018-09-29T10:33:30.976Z,20.08
2018-09-29T10:38:33.769Z,20.04
2018-09-29T10:41:02.579Z,19.81
2018-09-29T10:43:31.386Z,19.69
2018-09-29T10:46:00.222Z,19.71
2018-09-29T10:48:29.060Z,19.99
2018-09-29T10:50:57.865Z,20.14
2018-09-29T10:53:28.190Z,20.23
2018-09-29T10:55:56.998Z,20.26
2018-09-29T10:58:25.865Z,20.35
2018-09-29T11:00:54.731Z,20.50
2018-09-29T11:03:23.551Z,20.47
2018-09-29T11:05:52.404Z,20.60
2018-09-29T11:08:21.311Z,20.66
2018-09-29T11:10:51.394Z,20.51
2018-09-29T11:13:20.218Z,20.25
2018-09-29T11:15:50.474Z,20.17
2018-09-29T11:18:20.568Z,20.11
2018-09-29T11:20:49.430Z,19.86
2018-09-29T11:23:18.266Z,19.88
2018-09-29T11:25:48.363Z,19.78
2018-09-29T11:28:17.218Z,19.75
2018-09-29T11:30:47.541Z,19.86
2018-09-29T11:33:16.362Z,19.98
2018-09-29T11:35:45.300Z,19.87
2018-09-29T11:38:14.138Z,19.68
2018-09-29T11:40:43.161Z,19.35
2018-09-29T11:43:12.159Z,19.62
2018-09-29T11:45:41.084Z,19.67
2018-09-29T11:48:09.911Z,19.30
2018-09-29T11:50:40.142Z,19.17
2018-09-29T11:53:09.006Z,19.01
2018-09-29T11:55:38.462Z,19.09
2018-09-29T11:58:07.302Z,19.27
2018-09-29T12:00:36.184Z,19.37
2018-09-29T12:03:05.048Z,19.45
2018-09-29T12:05:33.891Z,19.30
2018-09-29T12:08:02.770Z,19.39
2018-09-29T12:10:32.882Z,19.27
2018-09-29T12:13:04.238Z,19.26
2018-09-29T12:15:33.067Z,19.16
2018-09-29T12:18:03.428Z,19.35
2018-09-29T12:20:32.271Z,19.41
2018-09-29T12:23:01.110Z,19.23
2018-09-29T12:25:31.278Z,19.16
2018-09-29T12:28:00.100Z,19.16
2018-09-29T12:30:28.953Z,19.28
2018-09-29T12:32:59.099Z,19.43
2018-09-29T12:35:27.922Z,19.47
2018-09-29T12:37:58.091Z,19.52
2018-09-29T12:40:26.973Z,19.54
2018-09-29T12:42:57.226Z,19.58
2018-09-29T12:45:27.345Z,19.50
2018-09-29T12:47:56.186Z,19.48
2018-09-29T12:50:25.344Z,18.69
2018-09-29T12:52:54.442Z,18.67
2018-09-29T12:55:23.280Z,18.87
2018-09-29T12:57:53.387Z,18.96
2018-09-29T13:00:22.451Z,18.87
2018-09-29T13:02:51.311Z,18.72
2018-09-29T13:05:20.264Z,18.82
2018-09-29T13:07:49.063Z,18.85
2018-09-29T13:10:17.909Z,18.73
2018-09-29T13:12:46.755Z,18.34
2018-09-29T13:15:15.619Z,17.92
2018-09-29T13:17:44.494Z,17.78
2018-09-29T13:20:13.344Z,17.67
2018-09-29T13:22:42.180Z,17.73
2018-09-29T13:25:11.065Z,17.80
2018-09-29T13:27:40.080Z,17.81
2018-09-29T13:30:08.992Z,17.96
2018-09-29T13:32:38.033Z,18.03
2018-09-29T13:35:07.187Z,18.16
2018-09-29T13:37:36.015Z,17.99
2018-09-29T13:40:04.925Z,18.01
2018-09-29T13:42:33.806Z,18.03
2018-09-29T13:45:02.664Z,18.23
2018-09-29T13:47:31.511Z,18.13
2018-09-29T13:50:00.435Z,18.05
2018-09-29T13:52:29.318Z,18.11
2018-09-29T13:54:58.173Z,18.28
2018-09-29T13:57:27.048Z,18.35
2018-09-29T13:59:56.042Z,18.35
2018-09-29T14:02:25.086Z,18.41
2018-09-29T14:04:53.963Z,18.41
2018-09-29T14:07:22.787Z,18.31
2018-09-29T14:09:51.630Z,18.09
2018-09-29T14:12:20.558Z,18.10
2018-09-29T14:14:49.390Z,18.20
2018-09-29T14:17:18.260Z,18.21
2018-09-29T14:19:47.226Z,18.19
2018-09-29T14:22:16.095Z,18.32
2018-09-29T14:24:45.047Z,18.11
2018-09-29T14:27:13.875Z,18.07
2018-09-29T14:29:42.678Z,18.03
2018-09-29T14:32:11.536Z,17.97
2018-09-29T14:34:40.415Z,18.00
2018-09-29T14:37:10.582Z,17.96
2018-09-29T14:39:39.419Z,17.99
2018-09-29T14:42:08.294Z,18.08
2018-09-29T14:44:37.123Z,18.11
2018-09-29T14:47:06.112Z,18.07
2018-09-29T14:49:35.183Z,18.00
2018-09-29T14:52:04.127Z,18.04
2018-09-29T14:54:33.002Z,18.14
2018-09-29T14:57:02.093Z,17.91
2018-09-29T14:59:30.987Z,18.03
2018-09-29T15:02:02.481Z,18.03
2018-09-29T15:04:31.331Z,18.02
2018-09-29T15:07:00.175Z,18.06
2018-09-29T15:09:29.076Z,18.03
2018-09-29T15:11:57.922Z,18.02
2018-09-29T15:14:26.819Z,18.13
2018-09-29T15:16:57.062Z,18.11
2018-09-29T15:19:25.964Z,18.17
2018-09-29T15:21:54.911Z,18.06
2018-09-29T15:24:23.754Z,17.95
2018-09-29T15:26:52.580Z,18.01
2018-09-29T15:29:21.462Z,18.02
2018-09-29T15:31:50.348Z,18.17
2018-09-29T15:34:19.197Z,18.14
2018-09-29T15:36:48.079Z,18.05
2018-09-29T15:39:16.956Z,18.00
2018-09-29T15:41:45.796Z,18.04
2018-09-29T15:44:14.745Z,18.10
2018-09-29T15:46:43.661Z,18.17
2018-09-29T15:49:12.497Z,18.14
2018-09-29T15:51:41.385Z,18.14
2018-09-29T15:54:11.278Z,17.97
2018-09-29T15:56:40.267Z,17.99
2018-09-29T15:59:09.155Z,17.88
2018-09-29T16:01:38.069Z,17.81
2018-09-29T16:04:09.924Z,17.79
2018-09-29T16:06:38.839Z,17.64
2018-09-29T16:09:10.992Z,17.49
2018-09-29T16:11:40.663Z,17.46
2018-09-29T16:14:09.577Z,17.54
2018-09-29T16:16:38.483Z,17.66
2018-09-29T16:19:07.385Z,17.75
2018-09-29T16:21:36.283Z,17.80
2018-09-29T16:24:05.207Z,17.84
2018-09-29T16:26:34.431Z,17.78
2018-09-29T16:29:03.424Z,17.77
2018-09-29T16:31:32.291Z,17.74
2018-09-29T16:34:02.599Z,17.69
2018-09-29T16:36:31.487Z,17.69
2018-09-29T16:39:00.318Z,17.67
2018-09-29T16:41:30.606Z,17.67
2018-09-29T16:43:59.492Z,17.54
2018-09-29T16:46:28.361Z,17.61
2018-09-29T16:48:57.243Z,17.60
2018-09-29T16:51:26.075Z,17.68
2018-09-29T16:53:54.972Z,17.65
2018-09-29T16:56:23.913Z,17.67
2018-09-29T16:58:52.833Z,17.71
2018-09-29T17:01:21.707Z,17.70
2018-09-29T17:03:50.741Z,17.65
2018-09-29T17:06:19.757Z,17.72
2018-09-29T17:08:48.869Z,17.77
2018-09-29T17:11:17.762Z,17.82
2018-09-29T17:13:46.667Z,17.76
2018-09-29T17:16:15.695Z,17.82
2018-09-29T17:18:44.671Z,17.75
2018-09-29T17:21:13.556Z,17.78
2018-09-29T17:23:42.529Z,17.75
2018-09-29T17:26:11.419Z,17.72
2018-09-29T17:28:40.395Z,17.76
2018-09-29T17:31:09.291Z,17.67
2018-09-29T17:33:38.673Z,17.65
2018-09-29T17:36:08.278Z,17.69
2018-09-29T17:38:37.284Z,17.72
2018-09-29T17:41:06.510Z,17.79
2018-09-29T17:43:35.359Z,17.80
2018-09-29T17:46:04.290Z,17.91
2018-09-29T17:48:33.212Z,17.76
2018-09-29T17:51:02.080Z,17.73
2018-09-29T17:53:31.046Z,17.52
2018-09-29T17:55:59.983Z,17.40
2018-09-29T17:58:29.446Z,17.38
2018-09-29T18:00:58.500Z,17.27
2018-09-29T18:03:27.482Z,17.24
2018-09-29T18:05:56.969Z,17.21
2018-09-29T18:08:26.676Z,17.31
2018-09-29T18:10:56.470Z,17.40
2018-09-29T18:13:25.483Z,17.44
2018-09-29T18:15:54.457Z,17.48
2018-09-29T18:18:24.132Z,17.53
2018-09-29T18:20:53.020Z,17.47
2018-09-29T18:23:22.505Z,17.48
2018-09-29T18:25:52.895Z,17.46
2018-09-29T18:28:22.277Z,17.49
2018-09-29T18:30:51.176Z,17.51
2018-09-29T18:33:21.321Z,17.53
2018-09-29T18:35:50.325Z,17.61
2018-09-29T18:38:19.322Z,17.64
2018-09-29T18:40:48.599Z,17.62
2018-09-29T18:43:18.752Z,17.57
2018-09-29T18:45:47.680Z,17.65
2018-09-29T18:48:17.768Z,17.65
2018-09-29T18:50:49.387Z,17.57
2018-09-29T18:53:19.822Z,17.64
2018-09-29T18:55:48.899Z,17.49
2018-09-29T18:58:19.564Z,17.52
2018-09-29T19:00:48.645Z,17.53
2018-09-29T19:03:18.805Z,17.54
2018-09-29T19:05:47.754Z,17.46
2018-09-29T19:08:16.818Z,17.40
2018-09-29T19:10:45.716Z,17.23
2018-09-29T19:13:14.634Z,16.58
2018-09-29T19:15:43.678Z,16.16
2018-09-29T19:18:12.636Z,15.78
2018-09-29T19:20:41.696Z,15.48
2018-09-29T19:23:10.565Z,15.22
2018-09-29T19:25:39.458Z,15.07
2018-09-29T19:28:08.350Z,14.96
2018-09-29T19:30:38.777Z,14.90
2018-09-29T19:33:07.662Z,14.84
2018-09-29T19:35:36.614Z,14.79
2018-09-29T19:38:05.551Z,14.76
2018-09-29T19:40:34.383Z,14.68
2018-09-29T19:43:03.271Z,14.62
2018-09-29T19:45:33.204Z,14.58
2018-09-29T19:48:02.451Z,14.56
2018-09-29T19:50:33.023Z,14.53
2018-09-29T19:53:01.887Z,14.55
2018-09-29T19:55:30.781Z,14.52
2018-09-29T19:58:01.161Z,14.49
2018-09-29T20:00:30.085Z,14.51
2018-09-29T20:02:58.909Z,14.53
2018-09-29T20:05:29.062Z,14.45
2018-09-29T20:07:57.968Z,14.41
2018-09-29T20:10:26.807Z,14.30
2018-09-29T20:12:55.731Z,14.27
2018-09-29T20:15:24.819Z,14.23
2018-09-29T20:17:53.674Z,14.18
2018-09-29T20:20:24.190Z,14.15
2018-09-29T20:22:53.016Z,14.12
2018-09-29T20:25:21.919Z,14.04
2018-09-29T20:27:52.332Z,14.04
2018-09-29T20:30:21.231Z,13.98
2018-09-29T20:32:50.036Z,13.91
2018-09-29T20:35:20.224Z,13.86
2018-09-29T20:37:49.047Z,13.84
2018-09-29T20:40:17.884Z,13.76
2018-09-29T20:42:46.875Z,13.68
2018-09-29T20:45:15.709Z,13.64
2018-09-29T20:47:44.624Z,13.59
2018-09-29T20:50:15.055Z,13.55
2018-09-29T20:52:43.975Z,13.53
2018-09-29T20:55:12.804Z,13.50
2018-09-29T20:57:41.670Z,13.47
2018-09-29T21:00:10.525Z,13.45
2018-09-29T21:02:39.416Z,13.42
2018-09-29T21:05:08.282Z,13.38
2018-09-29T21:07:38.361Z,13.38
2018-09-29T21:10:07.248Z,13.37
2018-09-29T21:12:36.177Z,13.39
2018-09-29T21:15:05.291Z,13.38
2018-09-29T21:17:34.143Z,13.39
2018-09-29T21:20:03.012Z,13.36
2018-09-29T21:22:31.836Z,13.43
2018-09-29T21:25:00.738Z,13.37
2018-09-29T21:27:31.037Z,13.31
2018-09-29T21:29:59.960Z,13.13
2018-09-29T21:32:28.797Z,13.31
2018-09-29T21:34:57.653Z,13.29
2018-09-29T21:37:26.496Z,13.27
2018-09-29T21:39:55.383Z,13.27
2018-09-29T21:42:24.279Z,13.25
2018-09-29T21:44:54.538Z,13.24
2018-09-29T21:47:23.474Z,13.24
2018-09-29T21:49:52.433Z,13.20
2018-09-29T21:52:21.438Z,13.22
2018-09-29T21:54:50.391Z,13.18
2018-09-29T21:57:19.305Z,13.17
2018-09-29T21:59:48.253Z,13.21
2018-09-29T22:02:17.099Z,13.18
2018-09-29T22:04:45.912Z,13.19
2018-09-29T22:07:14.765Z,13.18
2018-09-29T22:09:43.591Z,13.13
2018-09-29T22:12:12.439Z,13.14
2018-09-29T22:14:41.315Z,13.13
2018-09-29T22:17:10.145Z,13.11
2018-09-29T22:19:39.002Z,13.10
2018-09-29T22:22:07.869Z,13.09
2018-09-29T22:24:36.698Z,13.12
2018-09-29T22:27:05.600Z,13.12
2018-09-29T22:29:34.420Z,13.11
2018-09-29T22:32:03.248Z,13.10
2018-09-29T22:34:32.116Z,13.05
2018-09-29T22:37:00.931Z,13.02
2018-09-29T22:39:29.742Z,12.98
2018-09-29T22:41:58.597Z,12.94
2018-09-29T22:44:27.412Z,12.92
2018-09-29T22:46:56.228Z,12.90
2018-09-29T22:49:25.082Z,12.90
2018-09-29T22:51:53.894Z,12.89
2018-09-29T22:54:22.698Z,12.81
2018-09-29T22:56:51.594Z,12.83
2018-09-29T22:59:20.396Z,12.77
2018-09-29T23:01:49.214Z,12.66
2018-09-29T23:04:18.077Z,12.67
2018-09-29T23:06:46.911Z,12.66
2018-09-29T23:09:16.087Z,12.61
2018-09-29T23:11:44.951Z,12.58
2018-09-29T23:14:13.761Z,12.60
2018-09-29T23:16:42.547Z,12.62
2018-09-29T23:19:11.446Z,12.56
2018-09-29T23:21:40.351Z,12.55
2018-09-29T23:24:09.173Z,12.55
2018-09-29T23:26:39.353Z,12.49
2018-09-29T23:29:08.160Z,12.51
2018-09-29T23:31:37.006Z,12.46
2018-09-29T23:34:05.878Z,12.44
2018-09-29T23:36:34.765Z,12.42
2018-09-29T23:39:03.770Z,12.44
2018-09-29T23:41:32.569Z,12.40
2018-09-29T23:44:01.372Z,12.42
2018-09-29T23:46:30.201Z,12.42
2018-09-29T23:48:59.006Z,12.41
2018-09-29T23:51:27.801Z,12.44
2018-09-29T23:53:56.639Z,12.37
2018-09-29T23:56:25.446Z,12.38
2018-09-29T23:58:54.249Z,12.41
